sensor_id;sensor_type;location;lat;lon;timestamp;pressure;altitude;pressure_sealevel;temperature;humidity
55604;BME280;41468;48.838;9.330;2022-12-29T00:01:00;97898.13;;;9.42;68.30
55604;BME280;41468;48.838;9.330;2022-12-29T00:03:33;97907.19;;;9.49;67.88
55604;BME280;41468;48.838;9.330;2022-12-29T00:06:05;97897.06;;;9.50;68.12
55604;BME280;41468;48.838;9.330;2022-12-29T00:08:37;97909.56;;;9.51;67.93
55604;BME280;41468;48.838;9.330;2022-12-29T00:11:14;97898.66;;;9.51;67.79
55604;BME280;41468;48.838;9.330;2022-12-29T00:13:42;97907.22;;;9.53;67.71
55604;BME280;41468;48.838;9.330;2022-12-29T00:16:47;97891.28;;;9.55;67.89
55604;BME280;41468;48.838;9.330;2022-12-29T00:19:27;97890.97;;;9.60;67.65
55604;BME280;41468;48.838;9.330;2022-12-29T00:22:14;97889.84;;;9.65;67.51
55604;BME280;41468;48.838;9.330;2022-12-29T00:25:03;97881.63;;;9.61;67.85
55604;BME280;41468;48.838;9.330;2022-12-29T00:27:54;97883.94;;;9.59;68.48
55604;BME280;41468;48.838;9.330;2022-12-29T00:30:39;97877.91;;;9.77;67.18
55604;BME280;41468;48.838;9.330;2022-12-29T00:33:29;97876.72;;;9.74;67.40
55604;BME280;41468;48.838;9.330;2022-12-29T00:38:59;97876.69;;;9.70;68.11
55604;BME280;41468;48.838;9.330;2022-12-29T00:41:47;97867.00;;;9.77;67.05
55604;BME280;41468;48.838;9.330;2022-12-29T00:44:40;97867.75;;;9.73;67.42
55604;BME280;41468;48.838;9.330;2022-12-29T00:47:21;97870.16;;;9.79;66.99
55604;BME280;41468;48.838;9.330;2022-12-29T00:49:48;97860.06;;;9.83;66.75
55604;BME280;41468;48.838;9.330;2022-12-29T00:52:14;97857.75;;;9.85;66.80
55604;BME280;41468;48.838;9.330;2022-12-29T00:54:54;97865.56;;;9.86;66.68
55604;BME280;41468;48.838;9.330;2022-12-29T00:57:20;97851.47;;;9.81;66.73
55604;BME280;41468;48.838;9.330;2022-12-29T00:59:47;97866.00;;;9.92;66.66
55604;BME280;41468;48.838;9.330;2022-12-29T01:02:25;97857.84;;;9.95;67.06
55604;BME280;41468;48.838;9.330;2022-12-29T01:04:57;97861.69;;;9.91;67.97
55604;BME280;41468;48.838;9.330;2022-12-29T01:07:23;97860.13;;;9.90;67.21
55604;BME280;41468;48.838;9.330;2022-12-29T01:09:50;97865.63;;;9.93;66.82
55604;BME280;41468;48.838;9.330;2022-12-29T01:12:47;97871.91;;;9.98;67.09
55604;BME280;41468;48.838;9.330;2022-12-29T01:15:27;97871.50;;;9.99;66.38
55604;BME280;41468;48.838;9.330;2022-12-29T01:17:54;97877.38;;;10.01;66.64
55604;BME280;41468;48.838;9.330;2022-12-29T01:20:21;97874.66;;;10.01;66.12
55604;BME280;41468;48.838;9.330;2022-12-29T01:22:58;97873.16;;;10.07;65.77
55604;BME280;41468;48.838;9.330;2022-12-29T01:25:35;97874.00;;;10.11;65.34
55604;BME280;41468;48.838;9.330;2022-12-29T01:28:16;97885.69;;;10.12;65.69
55604;BME280;41468;48.838;9.330;2022-12-29T01:30:50;97886.09;;;10.14;65.81
55604;BME280;41468;48.838;9.330;2022-12-29T01:33:17;97880.22;;;10.12;66.22
55604;BME280;41468;48.838;9.330;2022-12-29T01:35:44;97870.50;;;10.14;65.90
55604;BME280;41468;48.838;9.330;2022-12-29T01:38:28;97874.13;;;10.26;64.99
55604;BME280;41468;48.838;9.330;2022-12-29T01:40:54;97881.97;;;10.27;65.28
55604;BME280;41468;48.838;9.330;2022-12-29T01:43:21;97875.69;;;10.27;65.52
55604;BME280;41468;48.838;9.330;2022-12-29T01:48:50;97876.50;;;10.27;65.15
55604;BME280;41468;48.838;9.330;2022-12-29T01:51:19;97866.00;;;10.29;65.12
55604;BME280;41468;48.838;9.330;2022-12-29T01:54:00;97878.91;;;10.36;64.50
55604;BME280;41468;48.838;9.330;2022-12-29T01:56:39;97880.88;;;10.35;65.06
55604;BME280;41468;48.838;9.330;2022-12-29T01:59:20;97877.72;;;10.30;65.62
55604;BME280;41468;48.838;9.330;2022-12-29T02:01:55;97879.75;;;10.40;65.87
55604;BME280;41468;48.838;9.330;2022-12-29T02:04:24;97875.44;;;10.39;65.39
55604;BME280;41468;48.838;9.330;2022-12-29T02:07:09;97868.84;;;10.40;65.03
55604;BME280;41468;48.838;9.330;2022-12-29T02:10:03;97869.97;;;10.39;64.77
55604;BME280;41468;48.838;9.330;2022-12-29T02:12:44;97858.69;;;10.41;65.30
55604;BME280;41468;48.838;9.330;2022-12-29T02:15:16;97861.34;;;10.30;65.19
55604;BME280;41468;48.838;9.330;2022-12-29T02:18:18;97849.31;;;10.38;64.51
55604;BME280;41468;48.838;9.330;2022-12-29T02:29:45;97848.09;;;10.32;65.90
55604;BME280;41468;48.838;9.330;2022-12-29T02:35:36;97851.91;;;10.24;65.86
55604;BME280;41468;48.838;9.330;2022-12-29T02:40:43;97842.13;;;10.23;65.64
55604;BME280;41468;48.838;9.330;2022-12-29T02:43:24;97855.53;;;10.35;65.70
55604;BME280;41468;48.838;9.330;2022-12-29T02:46:01;97844.97;;;10.33;65.81
55604;BME280;41468;48.838;9.330;2022-12-29T02:48:35;97846.09;;;10.29;66.17
55604;BME280;41468;48.838;9.330;2022-12-29T02:51:29;97832.53;;;10.36;65.47
55604;BME280;41468;48.838;9.330;2022-12-29T02:53:58;97840.03;;;10.46;65.33
55604;BME280;41468;48.838;9.330;2022-12-29T02:56:44;97839.59;;;10.41;66.26
55604;BME280;41468;48.838;9.330;2022-12-29T02:59:22;97842.38;;;10.48;65.46
55604;BME280;41468;48.838;9.330;2022-12-29T03:05:12;97837.66;;;10.45;65.30
55604;BME280;41468;48.838;9.330;2022-12-29T03:10:38;97837.72;;;10.48;65.18
55604;BME280;41468;48.838;9.330;2022-12-29T03:16:35;97839.69;;;10.51;66.00
55604;BME280;41468;48.838;9.330;2022-12-29T03:19:24;97831.50;;;10.51;65.64
55604;BME280;41468;48.838;9.330;2022-12-29T03:22:10;97835.00;;;10.52;66.74
55604;BME280;41468;48.838;9.330;2022-12-29T03:24:57;97832.25;;;10.48;66.20
55604;BME280;41468;48.838;9.330;2022-12-29T03:27:55;97824.44;;;10.50;65.40
55604;BME280;41468;48.838;9.330;2022-12-29T03:30:29;97821.75;;;10.54;66.13
55604;BME280;41468;48.838;9.330;2022-12-29T03:33:00;97814.75;;;10.56;65.49
55604;BME280;41468;48.838;9.330;2022-12-29T03:46:02;97805.59;;;10.86;63.76
55604;BME280;41468;48.838;9.330;2022-12-29T03:48:34;97805.25;;;10.95;63.64
55604;BME280;41468;48.838;9.330;2022-12-29T03:51:00;97791.16;;;10.89;64.06
55604;BME280;41468;48.838;9.330;2022-12-29T03:53:38;97800.97;;;11.01;63.46
55604;BME280;41468;48.838;9.330;2022-12-29T03:56:05;97791.59;;;10.95;63.75
55604;BME280;41468;48.838;9.330;2022-12-29T03:58:32;97803.28;;;10.92;64.24
55604;BME280;41468;48.838;9.330;2022-12-29T04:00:59;97792.41;;;11.02;64.06
55604;BME280;41468;48.838;9.330;2022-12-29T04:03:37;97804.47;;;10.94;63.95
55604;BME280;41468;48.838;9.330;2022-12-29T04:06:05;97797.06;;;10.98;64.29
55604;BME280;41468;48.838;9.330;2022-12-29T04:08:32;97800.59;;;11.02;63.88
55604;BME280;41468;48.838;9.330;2022-12-29T04:10:59;97812.31;;;11.06;64.18
55604;BME280;41468;48.838;9.330;2022-12-29T04:13:26;97789.66;;;10.99;64.36
55604;BME280;41468;48.838;9.330;2022-12-29T04:16:03;97799.00;;;11.01;64.42
55604;BME280;41468;48.838;9.330;2022-12-29T04:18:41;97798.66;;;11.03;64.19
55604;BME280;41468;48.838;9.330;2022-12-29T04:21:19;97804.09;;;11.03;64.33
55604;BME280;41468;48.838;9.330;2022-12-29T04:23:46;97804.88;;;11.00;64.43
55604;BME280;41468;48.838;9.330;2022-12-29T04:26:25;97817.00;;;11.02;64.61
55604;BME280;41468;48.838;9.330;2022-12-29T04:29:04;97817.78;;;11.06;64.51
55604;BME280;41468;48.838;9.330;2022-12-29T04:31:42;97820.13;;;11.08;64.64
55604;BME280;41468;48.838;9.330;2022-12-29T04:34:16;97828.34;;;11.08;64.99
55604;BME280;41468;48.838;9.330;2022-12-29T04:36:54;97822.09;;;11.08;64.98
55604;BME280;41468;48.838;9.330;2022-12-29T04:39:32;97823.63;;;11.05;65.41
55604;BME280;41468;48.838;9.330;2022-12-29T04:42:00;97815.44;;;11.09;65.07
55604;BME280;41468;48.838;9.330;2022-12-29T04:44:27;97819.78;;;11.10;65.47
55604;BME280;41468;48.838;9.330;2022-12-29T04:47:05;97808.44;;;11.15;65.61
55604;BME280;41468;48.838;9.330;2022-12-29T04:49:32;97804.16;;;11.10;65.77
55604;BME280;41468;48.838;9.330;2022-12-29T04:51:59;97805.72;;;11.15;65.81
55604;BME280;41468;48.838;9.330;2022-12-29T04:54:26;97815.88;;;11.14;66.33
55604;BME280;41468;48.838;9.330;2022-12-29T04:56:57;97810.41;;;11.11;66.44
55604;BME280;41468;48.838;9.330;2022-12-29T04:59:24;97811.16;;;11.11;66.24
55604;BME280;41468;48.838;9.330;2022-12-29T05:01:50;97818.22;;;11.16;66.53
55604;BME280;41468;48.838;9.330;2022-12-29T05:04:17;97817.41;;;11.12;66.80
55604;BME280;41468;48.838;9.330;2022-12-29T05:06:57;97815.09;;;11.14;66.86
55604;BME280;41468;48.838;9.330;2022-12-29T05:09:24;97812.72;;;11.12;67.35
55604;BME280;41468;48.838;9.330;2022-12-29T05:11:51;97811.13;;;11.04;67.59
55604;BME280;41468;48.838;9.330;2022-12-29T05:14:17;97811.94;;;11.08;67.67
55604;BME280;41468;48.838;9.330;2022-12-29T05:16:44;97800.97;;;10.97;67.85
55604;BME280;41468;48.838;9.330;2022-12-29T05:19:11;97801.75;;;11.01;68.02
55604;BME280;41468;48.838;9.330;2022-12-29T05:21:37;97790.81;;;10.94;68.41
55604;BME280;41468;48.838;9.330;2022-12-29T05:24:04;97802.50;;;10.98;68.69
55604;BME280;41468;48.838;9.330;2022-12-29T05:26:31;97800.59;;;11.06;68.58
55604;BME280;41468;48.838;9.330;2022-12-29T05:28:58;97776.41;;;11.04;68.56
55604;BME280;41468;48.838;9.330;2022-12-29T05:31:50;97785.03;;;11.14;67.89
55604;BME280;41468;48.838;9.330;2022-12-29T05:34:17;97782.31;;;11.14;68.09
55604;BME280;41468;48.838;9.330;2022-12-29T05:36:48;97778.38;;;11.15;68.03
55604;BME280;41468;48.838;9.330;2022-12-29T05:39:20;97788.13;;;11.12;67.98
55604;BME280;41468;48.838;9.330;2022-12-29T05:41:46;97807.31;;;11.16;67.88
55604;BME280;41468;48.838;9.330;2022-12-29T05:44:25;97807.66;;;11.11;68.22
55604;BME280;41468;48.838;9.330;2022-12-29T05:46:52;97797.91;;;11.10;68.23
55604;BME280;41468;48.838;9.330;2022-12-29T05:49:19;97795.19;;;11.13;68.28
55604;BME280;41468;48.838;9.330;2022-12-29T05:51:46;97793.63;;;11.16;68.13
55604;BME280;41468;48.838;9.330;2022-12-29T05:54:23;97772.16;;;11.11;67.90
55604;BME280;41468;48.838;9.330;2022-12-29T05:56:50;97781.53;;;11.13;67.99
55604;BME280;41468;48.838;9.330;2022-12-29T05:59:16;97794.81;;;11.18;67.70
55604;BME280;41468;48.838;9.330;2022-12-29T06:01:58;97798.69;;;11.14;67.84
55604;BME280;41468;48.838;9.330;2022-12-29T06:04:35;97800.25;;;11.08;67.83
55604;BME280;41468;48.838;9.330;2022-12-29T06:07:26;97794.38;;;11.05;67.55
55604;BME280;41468;48.838;9.330;2022-12-29T06:10:07;97786.56;;;11.08;67.77
55604;BME280;41468;48.838;9.330;2022-12-29T06:12:34;97780.75;;;11.13;67.34
55604;BME280;41468;48.838;9.330;2022-12-29T06:15:06;97772.16;;;11.11;67.42
55604;BME280;41468;48.838;9.330;2022-12-29T06:17:47;97774.09;;;11.10;67.11
55604;BME280;41468;48.838;9.330;2022-12-29T06:20:26;97756.47;;;10.97;66.91
55604;BME280;41468;48.838;9.330;2022-12-29T06:22:52;97771.28;;;10.96;66.99
55604;BME280;41468;48.838;9.330;2022-12-29T06:25:19;97769.69;;;10.88;67.14
55604;BME280;41468;48.838;9.330;2022-12-29T06:27:56;97775.19;;;10.91;66.99
55604;BME280;41468;48.838;9.330;2022-12-29T06:30:43;97780.59;;;10.84;67.06
55604;BME280;41468;48.838;9.330;2022-12-29T06:33:10;97792.72;;;10.90;67.34
55604;BME280;41468;48.838;9.330;2022-12-29T06:35:49;97784.16;;;10.92;67.24
55604;BME280;41468;48.838;9.330;2022-12-29T06:38:15;97791.53;;;10.88;67.61
55604;BME280;41468;48.838;9.330;2022-12-29T06:40:47;97788.47;;;10.96;66.42
55604;BME280;41468;48.838;9.330;2022-12-29T06:43:13;97795.84;;;10.92;67.15
55604;BME280;41468;48.838;9.330;2022-12-29T06:45:41;97788.44;;;10.89;66.97
55604;BME280;41468;48.838;9.330;2022-12-29T06:48:13;97777.09;;;10.87;66.89
55604;BME280;41468;48.838;9.330;2022-12-29T06:50:40;97789.97;;;10.90;67.24
55604;BME280;41468;48.838;9.330;2022-12-29T06:53:07;97784.50;;;10.87;66.99
55604;BME280;41468;48.838;9.330;2022-12-29T06:55:38;97779.41;;;10.85;66.56
55604;BME280;41468;48.838;9.330;2022-12-29T06:58:05;97783.75;;;10.86;66.67
55604;BME280;41468;48.838;9.330;2022-12-29T07:00:32;97777.81;;;10.77;66.24
55604;BME280;41468;48.838;9.330;2022-12-29T07:02:59;97776.66;;;10.78;66.62
55604;BME280;41468;48.838;9.330;2022-12-29T07:05:37;97774.28;;;10.73;66.62
55604;BME280;41468;48.838;9.330;2022-12-29T07:08:04;97770.75;;;10.69;66.84
55604;BME280;41468;48.838;9.330;2022-12-29T07:10:31;97775.44;;;10.72;66.44
55604;BME280;41468;48.838;9.330;2022-12-29T07:13:03;97766.91;;;10.77;66.09
55604;BME280;41468;48.838;9.330;2022-12-29T07:15:40;97771.97;;;10.75;66.02
55604;BME280;41468;48.838;9.330;2022-12-29T07:18:17;97775.09;;;10.77;66.00
55604;BME280;41468;48.838;9.330;2022-12-29T07:20:54;97779.41;;;10.81;65.83
55604;BME280;41468;48.838;9.330;2022-12-29T07:23:32;97767.34;;;10.86;65.65
55604;BME280;41468;48.838;9.330;2022-12-29T07:26:04;97770.84;;;10.87;65.72
55604;BME280;41468;48.838;9.330;2022-12-29T07:28:44;97758.78;;;10.91;65.72
55604;BME280;41468;48.838;9.330;2022-12-29T07:31:22;97760.72;;;10.91;65.67
55604;BME280;41468;48.838;9.330;2022-12-29T07:33:49;97765.44;;;10.97;65.54
55604;BME280;41468;48.838;9.330;2022-12-29T07:36:17;97775.19;;;10.95;65.84
55604;BME280;41468;48.838;9.330;2022-12-29T07:38:55;97768.19;;;11.01;65.59
55604;BME280;41468;48.838;9.330;2022-12-29T07:41:32;97781.53;;;11.10;65.04
55604;BME280;41468;48.838;9.330;2022-12-29T07:44:04;97779.94;;;11.12;65.21
55604;BME280;41468;48.838;9.330;2022-12-29T07:46:31;97770.59;;;11.13;65.28
55604;BME280;41468;48.838;9.330;2022-12-29T07:49:08;97777.59;;;11.11;65.64
55604;BME280;41468;48.838;9.330;2022-12-29T07:51:34;97783.84;;;11.15;65.18
55604;BME280;41468;48.838;9.330;2022-12-29T07:54:12;97782.75;;;11.30;67.06
55604;BME280;41468;48.838;9.330;2022-12-29T07:56:56;97799.13;;;11.23;65.61
55604;BME280;41468;48.838;9.330;2022-12-29T07:59:23;97796.38;;;11.23;65.38
55604;BME280;41468;48.838;9.330;2022-12-29T08:01:50;97801.47;;;11.24;65.34
55604;BME280;41468;48.838;9.330;2022-12-29T08:04:17;97795.28;;;11.31;65.31
55604;BME280;41468;48.838;9.330;2022-12-29T08:06:58;97797.22;;;11.34;65.11
55604;BME280;41468;48.838;9.330;2022-12-29T08:09:35;97798.41;;;11.37;65.20
55604;BME280;41468;48.838;9.330;2022-12-29T08:12:13;97791.75;;;11.38;64.73
55604;BME280;41468;48.838;9.330;2022-12-29T08:14:50;97808.16;;;11.41;64.76
55604;BME280;41468;48.838;9.330;2022-12-29T08:17:17;97803.09;;;11.43;64.61
55604;BME280;41468;48.838;9.330;2022-12-29T08:19:48;97816.78;;;11.47;64.37
55604;BME280;41468;48.838;9.330;2022-12-29T08:22:15;97818.38;;;11.52;64.18
55604;BME280;41468;48.838;9.330;2022-12-29T08:24:53;97822.69;;;11.53;64.57
55604;BME280;41468;48.838;9.330;2022-12-29T08:27:36;97822.28;;;11.50;64.80
55604;BME280;41468;48.838;9.330;2022-12-29T08:30:09;97812.13;;;11.55;64.74
55604;BME280;41468;48.838;9.330;2022-12-29T08:32:37;97810.56;;;11.57;65.30
55604;BME280;41468;48.838;9.330;2022-12-29T08:35:19;97820.34;;;11.58;65.22
55604;BME280;41468;48.838;9.330;2022-12-29T08:37:46;97804.72;;;11.66;64.86
55604;BME280;41468;48.838;9.330;2022-12-29T08:40:24;97807.88;;;11.75;67.09
55604;BME280;41468;48.838;9.330;2022-12-29T08:42:57;97807.50;;;11.80;64.95
55604;BME280;41468;48.838;9.330;2022-12-29T08:45:24;97799.75;;;11.93;64.95
55604;BME280;41468;48.838;9.330;2022-12-29T08:47:51;97802.06;;;11.87;64.27
55604;BME280;41468;48.838;9.330;2022-12-29T08:50:33;97795.38;;;11.81;64.36
55604;BME280;41468;48.838;9.330;2022-12-29T08:53:00;97802.47;;;11.86;64.83
55604;BME280;41468;48.838;9.330;2022-12-29T08:55:38;97801.28;;;11.87;64.95
55604;BME280;41468;48.838;9.330;2022-12-29T08:58:30;97809.53;;;11.90;64.39
55604;BME280;41468;48.838;9.330;2022-12-29T09:00:58;97816.56;;;11.88;64.99
55604;BME280;41468;48.838;9.330;2022-12-29T09:03:37;97816.94;;;11.86;63.92
55604;BME280;41468;48.838;9.330;2022-12-29T09:06:24;97826.31;;;12.00;63.68
55604;BME280;41468;48.838;9.330;2022-12-29T09:08:53;97816.97;;;12.08;62.84
55604;BME280;41468;48.838;9.330;2022-12-29T09:11:27;97835.72;;;12.16;62.42
55604;BME280;41468;48.838;9.330;2022-12-29T09:14:06;97837.66;;;12.09;62.73
55604;BME280;41468;48.838;9.330;2022-12-29T09:16:45;97844.31;;;12.11;62.62
55604;BME280;41468;48.838;9.330;2022-12-29T09:19:44;97848.22;;;12.14;62.28
55604;BME280;41468;48.838;9.330;2022-12-29T09:22:22;97845.50;;;12.14;62.32
55604;BME280;41468;48.838;9.330;2022-12-29T09:24:48;97850.59;;;12.15;62.27
55604;BME280;41468;48.838;9.330;2022-12-29T09:27:27;97841.97;;;12.13;61.98
55604;BME280;41468;48.838;9.330;2022-12-29T09:30:07;97847.44;;;12.13;62.41
55604;BME280;41468;48.838;9.330;2022-12-29T09:32:43;97852.56;;;12.15;61.98
55604;BME280;41468;48.838;9.330;2022-12-29T09:35:23;97850.59;;;12.19;62.21
55604;BME280;41468;48.838;9.330;2022-12-29T09:37:49;97844.75;;;12.21;61.83
55604;BME280;41468;48.838;9.330;2022-12-29T09:40:28;97850.59;;;12.12;62.19
55604;BME280;41468;48.838;9.330;2022-12-29T09:48:34;97847.06;;;12.33;61.30
55604;BME280;41468;48.838;9.330;2022-12-29T09:51:09;97839.66;;;12.37;61.50
55604;BME280;41468;48.838;9.330;2022-12-29T09:53:53;97834.19;;;12.44;61.34
55604;BME280;41468;48.838;9.330;2022-12-29T09:56:34;97844.34;;;12.51;61.05
55604;BME280;41468;48.838;9.330;2022-12-29T09:59:20;97839.66;;;12.48;61.19
55604;BME280;41468;48.838;9.330;2022-12-29T10:02:03;97849.06;;;12.61;61.28
55604;BME280;41468;48.838;9.330;2022-12-29T10:04:33;97833.78;;;12.67;61.32
55604;BME280;41468;48.838;9.330;2022-12-29T10:07:33;97830.66;;;12.72;60.90
55604;BME280;41468;48.838;9.330;2022-12-29T10:10:27;97839.66;;;12.69;61.23
55604;BME280;41468;48.838;9.330;2022-12-29T10:16:43;97845.13;;;12.62;61.26
55604;BME280;41468;48.838;9.330;2022-12-29T10:24:50;97839.25;;;12.56;62.42
55604;BME280;41468;48.838;9.330;2022-12-29T10:27:31;97842.41;;;12.55;62.30
55604;BME280;41468;48.838;9.330;2022-12-29T10:30:00;97849.03;;;12.54;62.10
55604;BME280;41468;48.838;9.330;2022-12-29T10:32:40;97846.69;;;12.56;62.37
55604;BME280;41468;48.838;9.330;2022-12-29T10:43:25;97842.00;;;12.56;63.07
55604;BME280;41468;48.838;9.330;2022-12-29T10:46:16;97829.50;;;12.55;63.30
55604;BME280;41468;48.838;9.330;2022-12-29T10:48:44;97831.81;;;12.57;63.62
55604;BME280;41468;48.838;9.330;2022-12-29T10:53:59;97831.06;;;12.64;63.32
55604;BME280;41468;48.838;9.330;2022-12-29T10:56:42;97831.03;;;12.67;63.53
55604;BME280;41468;48.838;9.330;2022-12-29T11:08:01;97827.88;;;12.90;63.61
55604;BME280;41468;48.838;9.330;2022-12-29T11:10:35;97827.47;;;12.92;63.38
55604;BME280;41468;48.838;9.330;2022-12-29T11:13:11;97834.91;;;12.91;63.69
55604;BME280;41468;48.838;9.330;2022-12-29T11:15:50;97829.41;;;12.95;63.74
55604;BME280;41468;48.838;9.330;2022-12-29T11:18:36;97826.69;;;12.95;63.89
55604;BME280;41468;48.838;9.330;2022-12-29T11:21:37;97825.53;;;12.96;63.87
55604;BME280;41468;48.838;9.330;2022-12-29T11:24:45;97829.06;;;12.93;64.40
55604;BME280;41468;48.838;9.330;2022-12-29T11:27:20;97833.34;;;13.01;64.35
55604;BME280;41468;48.838;9.330;2022-12-29T11:29:55;97829.44;;;12.98;64.29
55604;BME280;41468;48.838;9.330;2022-12-29T11:32:28;97828.66;;;12.98;64.18
55604;BME280;41468;48.838;9.330;2022-12-29T11:35:29;97827.88;;;13.01;64.20
55604;BME280;41468;48.838;9.330;2022-12-29T11:38:02;97827.84;;;12.97;64.35
55604;BME280;41468;48.838;9.330;2022-12-29T11:40:41;97831.75;;;13.00;64.24
55604;BME280;41468;48.838;9.330;2022-12-29T11:43:25;97837.22;;;13.07;63.65
55604;BME280;41468;48.838;9.330;2022-12-29T11:45:56;97835.28;;;13.08;63.61
55604;BME280;41468;48.838;9.330;2022-12-29T11:48:31;97829.41;;;13.09;63.06
55604;BME280;41468;48.838;9.330;2022-12-29T11:51:11;97831.75;;;13.07;62.37
55604;BME280;41468;48.838;9.330;2022-12-29T11:53:53;97846.22;;;13.08;63.36
55604;BME280;41468;48.838;9.330;2022-12-29T11:56:33;97833.34;;;12.97;64.23
55604;BME280;41468;48.838;9.330;2022-12-29T12:02:33;97851.38;;;12.73;69.72
55604;BME280;41468;48.838;9.330;2022-12-29T12:05:22;97852.56;;;12.58;71.39
55604;BME280;41468;48.838;9.330;2022-12-29T12:07:55;97854.91;;;12.59;71.16
55604;BME280;41468;48.838;9.330;2022-12-29T12:10:28;97852.16;;;12.49;72.45
55604;BME280;41468;48.838;9.330;2022-12-29T12:13:33;97850.63;;;12.48;72.98
55604;BME280;41468;48.838;9.330;2022-12-29T12:16:08;97859.22;;;12.46;74.94
55604;BME280;41468;48.838;9.330;2022-12-29T12:18:52;97867.81;;;12.41;76.03
55604;BME280;41468;48.838;9.330;2022-12-29T12:21:38;97857.66;;;12.38;75.09
55604;BME280;41468;48.838;9.330;2022-12-29T12:27:26;97839.66;;;12.37;76.32
55604;BME280;41468;48.838;9.330;2022-12-29T12:30:17;97838.88;;;12.33;76.10
55604;BME280;41468;48.838;9.330;2022-12-29T12:35:43;97848.25;;;12.43;73.59
55604;BME280;41468;48.838;9.330;2022-12-29T12:47:50;97827.91;;;12.54;73.11
55604;BME280;41468;48.838;9.330;2022-12-29T12:50:52;97816.97;;;12.54;72.30
55604;BME280;41468;48.838;9.330;2022-12-29T12:53:37;97812.28;;;12.55;71.95
55604;BME280;41468;48.838;9.330;2022-12-29T13:09:11;97808.75;;;12.58;73.81
55604;BME280;41468;48.838;9.330;2022-12-29T13:11:44;97800.50;;;12.65;75.78
55604;BME280;41468;48.838;9.330;2022-12-29T13:14:39;97797.28;;;13.10;74.88
55604;BME280;41468;48.838;9.330;2022-12-29T13:17:36;97797.34;;;12.92;73.43
55604;BME280;41468;48.838;9.330;2022-12-29T13:20:32;97801.66;;;12.86;73.82
55604;BME280;41468;48.838;9.330;2022-12-29T13:28:52;97802.03;;;12.95;74.63
55604;BME280;41468;48.838;9.330;2022-12-29T13:31:30;97788.75;;;12.82;73.71
55604;BME280;41468;48.838;9.330;2022-12-29T13:34:26;97795.78;;;12.83;73.63
55604;BME280;41468;48.838;9.330;2022-12-29T13:37:07;97797.38;;;12.74;73.40
55604;BME280;41468;48.838;9.330;2022-12-29T13:39:46;97800.53;;;12.69;74.38
55604;BME280;41468;48.838;9.330;2022-12-29T13:42:16;97794.25;;;12.65;74.91
55604;BME280;41468;48.838;9.330;2022-12-29T13:44:51;97789.56;;;12.54;74.83
55604;BME280;41468;48.838;9.330;2022-12-29T13:47:44;97789.19;;;12.49;75.32
55604;BME280;41468;48.838;9.330;2022-12-29T13:50:17;97790.00;;;12.49;75.66
55604;BME280;41468;48.838;9.330;2022-12-29T13:55:39;97787.63;;;12.48;74.21
55604;BME280;41468;48.838;9.330;2022-12-29T14:04:22;97792.72;;;12.53;74.09
55604;BME280;41468;48.838;9.330;2022-12-29T14:07:11;97794.66;;;12.49;74.19
55604;BME280;41468;48.838;9.330;2022-12-29T14:09:54;97799.38;;;12.45;75.05
55604;BME280;41468;48.838;9.330;2022-12-29T14:15:14;97803.66;;;12.46;75.45
55604;BME280;41468;48.838;9.330;2022-12-29T14:17:43;97803.28;;;12.44;75.65
55604;BME280;41468;48.838;9.330;2022-12-29T14:20:20;97816.19;;;12.43;75.51
55604;BME280;41468;48.838;9.330;2022-12-29T14:26:14;97822.06;;;12.34;76.25
55604;BME280;41468;48.838;9.330;2022-12-29T14:28:48;97823.63;;;12.35;76.57
55604;BME280;41468;48.838;9.330;2022-12-29T14:39:41;97816.19;;;12.40;76.55
55604;BME280;41468;48.838;9.330;2022-12-29T14:42:15;97824.03;;;12.34;76.34
55604;BME280;41468;48.838;9.330;2022-12-29T14:44:50;97815.41;;;12.35;76.59
55604;BME280;41468;48.838;9.330;2022-12-29T14:47:34;97813.06;;;12.30;77.00
55604;BME280;41468;48.838;9.330;2022-12-29T14:50:22;97809.94;;;12.25;77.14
55604;BME280;41468;48.838;9.330;2022-12-29T14:52:59;97822.47;;;12.26;77.29
55604;BME280;41468;48.838;9.330;2022-12-29T14:55:40;97816.97;;;12.26;79.09
55604;BME280;41468;48.838;9.330;2022-12-29T14:58:22;97818.16;;;12.21;78.16
55604;BME280;41468;48.838;9.330;2022-12-29T15:00:52;97810.72;;;12.25;78.01
55604;BME280;41468;48.838;9.330;2022-12-29T15:03:45;97818.16;;;12.21;77.55
55604;BME280;41468;48.838;9.330;2022-12-29T15:06:43;97809.94;;;12.18;77.54
55604;BME280;41468;48.838;9.330;2022-12-29T15:09:22;97813.44;;;12.18;77.34
55604;BME280;41468;48.838;9.330;2022-12-29T15:11:56;97814.25;;;12.15;77.52
55604;BME280;41468;48.838;9.330;2022-12-29T15:14:38;97813.84;;;12.16;77.02
55604;BME280;41468;48.838;9.330;2022-12-29T15:19:53;97800.94;;;12.10;77.79
55604;BME280;41468;48.838;9.330;2022-12-29T15:22:37;97802.09;;;12.20;77.90
55604;BME280;41468;48.838;9.330;2022-12-29T15:25:18;97801.31;;;12.41;78.41
55604;BME280;41468;48.838;9.330;2022-12-29T15:31:03;97800.16;;;12.13;75.87
55604;BME280;41468;48.838;9.330;2022-12-29T15:33:43;97807.56;;;12.09;75.78
55604;BME280;41468;48.838;9.330;2022-12-29T15:36:27;97815.78;;;12.09;75.59
55604;BME280;41468;48.838;9.330;2022-12-29T15:38:54;97811.88;;;12.03;75.43
55604;BME280;41468;48.838;9.330;2022-12-29T15:41:36;97816.19;;;12.11;75.19
55604;BME280;41468;48.838;9.330;2022-12-29T15:44:34;97822.44;;;12.08;75.61
55604;BME280;41468;48.838;9.330;2022-12-29T15:47:22;97831.81;;;12.07;75.21
55604;BME280;41468;48.838;9.330;2022-12-29T15:50:01;97842.78;;;12.07;75.19
55604;BME280;41468;48.838;9.330;2022-12-29T15:52:33;97884.59;;;12.11;75.39
55604;BME280;41468;48.838;9.330;2022-12-29T15:55:01;97905.28;;;11.90;78.48
55604;BME280;41468;48.838;9.330;2022-12-29T15:57:42;97906.66;;;11.56;83.76
55604;BME280;41468;48.838;9.330;2022-12-29T16:00:22;97905.66;;;11.16;89.90
55604;BME280;41468;48.838;9.330;2022-12-29T16:03:02;97905.13;;;10.96;91.90
55604;BME280;41468;48.838;9.330;2022-12-29T16:05:37;97911.66;;;10.80;92.90
55604;BME280;41468;48.838;9.330;2022-12-29T16:08:31;97901.38;;;10.63;94.97
55604;BME280;41468;48.838;9.330;2022-12-29T16:11:35;97901.91;;;10.79;94.11